Terminal Aerodrome Forecast
Issued by NWS Cleveland, OH

Home | Current Version | Previous Version | Text Only | Print | Product List | Glossary On
Versions: 1 2 3 4 5 6 7 8 9 10 11 12 13 14 15 16 17 18 19 20 21 22 23 24 25 26 27 28 29 30 31
000
FTUS41 KCLE 262300
TAFCLE
TAF
KCLE 262335Z 2700/2806 33006KT P6SM OVC040
     FM270300 36006KT P6SM VCSH OVC025
     FM270800 34006KT 5SM -SHSN OVC020
     FM271400 30010KT P6SM VCSH OVC025
     FM280100 28010KT 2SM -SHSN SCT008 OVC012=

USA.gov is the U.S. government's official web portal to all federal, state and local government web resources and services.